Buoy 46612

sailwx.info

Track history (hours):
 
Tides and Currents Weather Stations Pressure Air Temp Water Temp Dewpoint Dewpoint Depression Visibility Wind Speed Wind Dir Waves Ship Positions

Drifting buoy 46612

Last reported at 2014-Aug-21 03:00 UTC. Time now 2014-Aug-21 04:27 UTC.
Position N 26°40' W 138°57'.

Water temperature 23.9 ° C

Date/timePositionNaut miles runAvg speedWind from/ knotsBaromVisibWave heightAir tempDewpointWater temp
2014-Aug-21 03:00N 26°40' W 138°57'0 0.3 23.9
2014-Aug-21 02:00N 26°40' W 138°57'0 0.2 23.9
2014-Aug-21 01:00N 26°40' W 138°57'1 0.3 24.0
2014-Aug-20 23:00N 26°40' W 138°57'1 0.3 23.9
2014-Aug-20 21:00N 26°40' W 138°56'0 0.3 23.8
2014-Aug-20 20:00N 26°40' W 138°56'2 1.7 23.8
2014-Aug-20 19:00N 26°41' W 138°55'1 0.1 23.7
2014-Aug-20 14:00N 26°42' W 138°54'1 0.4 23.7
2014-Aug-20 12:00N 26°43' W 138°55'1 0.2 23.7
2014-Aug-20 07:00N 26°43' W 138°55'0 0.1 23.7
2014-Aug-20 03:00N 26°43' W 138°55'0 0.3 23.7
2014-Aug-20 02:00N 26°43' W 138°55'0 0.1 23.7
2014-Aug-20 01:00N 26°43' W 138°55'0 0.2 23.7
2014-Aug-19 23:00N 26°43' W 138°55'0 0.0 23.7
2014-Aug-19 21:00N 26°43' W 138°55'1 0.7 23.6
2014-Aug-19 20:00N 26°43' W 138°54'0 0.2 23.6
2014-Aug-19 18:00N 26°44' W 138°54'2 0.5 23.5
2014-Aug-19 15:00N 26°44' W 138°52'0 0.1 23.5
2014-Aug-19 12:00N 26°45' W 138°52'1 0.2 23.6
2014-Aug-19 07:00N 26°46' W 138°52'0 0.5 23.6
2014-Aug-19 06:00N 26°46' W 138°52'0 0.2 23.6
2014-Aug-19 04:00N 26°47' W 138°52'1 0.8 23.6
2014-Aug-19 03:00N 26°47' W 138°53'0 0.2 23.7
2014-Aug-19 00:00N 26°47' W 138°53'0 0.1 23.7
2014-Aug-18 23:00N 26°47' W 138°53'1 0.3 23.7
2014-Aug-18 21:00N 26°47' W 138°53'1 0.6 23.7
2014-Aug-18 19:00N 26°46' W 138°52'1 0.7 23.5
2014-Aug-18 18:00N 26°47' W 138°52'1 0.3 23.5
2014-Aug-18 15:00N 26°47' W 138°51'1 0.3 23.5
2014-Aug-18 13:00N 26°47' W 138°50'1 0.4 23.5
2014-Aug-18 11:00N 26°48' W 138°50'1 0.3 23.5
2014-Aug-18 07:00N 26°49' W 138°49'1 0.4 23.5
2014-Aug-18 04:00N 26°50' W 138°50'0 0.1 23.6
2014-Aug-18 03:00N 26°50' W 138°50'0 0.2 23.6
2014-Aug-18 02:00N 26°50' W 138°50'1 0.3 23.6
2014-Aug-18 00:00N 26°51' W 138°50'1 0.3 23.7
2014-Aug-17 22:00N 26°51' W 138°51'0 0.1 23.6
2014-Aug-17 21:00N 26°51' W 138°51'1 0.6 23.6
2014-Aug-17 20:00N 26°50' W 138°51'0 0.0 23.5
2014-Aug-17 19:00N 26°50' W 138°51'0 0.5 23.5
2014-Aug-17 18:00N 26°50' W 138°51'1 0.8 23.4
2014-Aug-17 17:00N 26°49' W 138°50'1 0.3 23.4
2014-Aug-17 14:00N 26°50' W 138°49'0 0.0 23.4
2014-Aug-17 13:00N 26°50' W 138°49'2 0.3 23.5
2014-Aug-17 07:00N 26°51' W 138°48'0 0.2 23.6
2014-Aug-17 06:00N 26°51' W 138°48'0 0.2 23.6
2014-Aug-17 05:00N 26°52' W 138°48'1 0.4 23.6
2014-Aug-17 02:00N 26°53' W 138°48'0 0.4 23.7
2014-Aug-17 01:00N 26°53' W 138°48'1 0.3 23.7
2014-Aug-16 22:00N 26°53' W 138°49'0 0.0 23.6
2014-Aug-16 18:00N 26°53' W 138°49'0 0.0 23.4
2014-Aug-16 17:00N 26°53' W 138°49'1 0.3 23.4
2014-Aug-16 15:00N 26°53' W 138°48'0 0.0 23.4
2014-Aug-16 14:00N 26°53' W 138°48'0 0.5 23.4
2014-Aug-16 13:00N 26°53' W 138°48'0 0.0 23.4
2014-Aug-16 12:00N 26°53' W 138°48'1 0.1 23.4
2014-Aug-16 07:00N 26°54' W 138°48'0 0.2 23.5
2014-Aug-16 06:00N 26°54' W 138°48'0 0.4 23.5
2014-Aug-16 05:00N 26°54' W 138°48'0 0.0 23.5
2014-Aug-16 04:00N 26°54' W 138°48'1 0.8 23.6
2014-Aug-16 03:00N 26°53' W 138°48'1 0.8 23.6
2014-Aug-16 02:00N 26°54' W 138°48'0 0.2 23.6
2014-Aug-16 01:00N 26°54' W 138°48'0 0.2 23.6
2014-Aug-16 00:00N 26°54' W 138°48'0 0.2 23.6
2014-Aug-15 23:00N 26°54' W 138°48'1 0.6 23.6
2014-Aug-15 22:00N 26°54' W 138°47'0 0.0 23.6
2014-Aug-15 20:00N 26°54' W 138°47'0 0.0 23.5
2014-Aug-15 18:00N 26°54' W 138°47'0 0.1 23.5
2014-Aug-15 15:00N 26°55' W 138°47'1 0.3 23.5
2014-Aug-15 13:00N 26°55' W 138°47'0 0.3 23.5
2014-Aug-15 12:00N 26°55' W 138°47'0 0.0 23.5
2014-Aug-15 11:00N 26°55' W 138°47'1 0.2 23.6
2014-Aug-15 06:00N 26°56' W 138°47'0 0.2 23.6
2014-Aug-15 04:00N 26°57' W 138°47'0 0.1 23.9
2014-Aug-15 03:00N 26°57' W 138°47'1 0.6 24.2
2014-Aug-15 02:00N 26°57' W 138°47'0 0.1 24.7
2014-Aug-15 01:00N 26°57' W 138°47'0 0.3 25.6
2014-Aug-15 00:00N 26°57' W 138°47'1 0.5 25.6
2014-Aug-14 23:00N 26°57' W 138°48'0 0.0 24.9
2014-Aug-14 22:00N 26°57' W 138°48'1 0.4 24.3
2014-Aug-14 20:00N 26°58' W 138°47'1 0.8 23.8
2014-Aug-14 19:00N 26°58' W 138°48'1 0.4 23.5
2014-Aug-14 17:00N 26°59' W 138°47'1 0.3 23.4
2014-Aug-14 15:00N 26°58' W 138°48'0 0.4 23.5
2014-Aug-14 14:00N 26°59' W 138°47'0 0.2 23.5
2014-Aug-14 13:00N 26°59' W 138°47'0 0.1 23.5
2014-Aug-14 12:00N 26°59' W 138°47'1 0.5 23.5
2014-Aug-14 11:00N 26°59' W 138°47'1 0.3 23.5
2014-Aug-14 09:00N 26°60' W 138°47'0 0.0 23.5
2014-Aug-14 07:00N 26°60' W 138°47'0 0.4 23.5
2014-Aug-14 06:00N 26°60' W 138°47'1 0.3 23.5
2014-Aug-14 03:00N 27°01' W 138°47'0 0.2 23.7
2014-Aug-14 01:00N 27°01' W 138°47'0 0.3 23.7
2014-Aug-14 00:00N 27°01' W 138°47'1 0.2 23.7
2014-Aug-13 21:00N 27°01' W 138°47'1 0.3 23.6
2014-Aug-13 19:00N 27°02' W 138°47'1 0.6 23.3
2014-Aug-13 18:00N 27°02' W 138°47'0 0.3 23.2
2014-Aug-13 17:00N 27°02' W 138°48'0 0.1 23.1
2014-Aug-13 16:00N 27°02' W 138°48'0 0.2 23.1
2014-Aug-13 15:00N 27°03' W 138°48'0 0.2 23.1
2014-Aug-13 13:00N 27°03' W 138°47'0 0.0 23.1
2014-Aug-13 12:00N 27°03' W 138°47'1 0.2 23.2
2014-Aug-13 09:00N 27°03' W 138°47'0 0.1 23.2
2014-Aug-13 06:00N 27°04' W 138°47'1 0.3 23.3
2014-Aug-13 04:00N 27°04' W 138°46'0 0.1 23.4
2014-Aug-13 03:00N 27°04' W 138°47'1 0.3 23.4
2014-Aug-13 01:00N 27°05' W 138°46'0 0.2 23.5
2014-Aug-13 00:00N 27°05' W 138°46'1 0.3 23.5
2014-Aug-12 22:00N 27°06' W 138°47'0 0.0 23.5
2014-Aug-12 21:00N 27°06' W 138°47'1 0.6 23.4
2014-Aug-12 20:00N 27°06' W 138°46'0 0.1 23.3
2014-Aug-12 18:00N 27°06' W 138°46'1 0.1 23.1
2014-Aug-12 14:00N 27°07' W 138°46'1 0.3 23.0
2014-Aug-12 12:00N 27°07' W 138°45'1 0.3 23.0
2014-Aug-12 07:00N 27°08' W 138°45'0 0.2 23.1
2014-Aug-12 06:00N 27°08' W 138°45'0 0.4 23.1
2014-Aug-12 05:00N 27°09' W 138°45'0 0.1 23.1
2014-Aug-12 03:00N 27°08' W 138°45'0 0.1 23.2
2014-Aug-12 02:00N 27°09' W 138°45'0 0.2 23.3
2014-Aug-12 01:00N 27°09' W 138°45'1 0.2 23.3
2014-Aug-11 21:00N 27°09' W 138°45'1 0.6 23.1
2014-Aug-11 19:00N 27°10' W 138°43'1 0.7 23.0
2014-Aug-11 18:00N 27°11' W 138°44'0 0.0 23.0
2014-Aug-11 16:00N 27°11' W 138°44'0 0.5 23.0
2014-Aug-11 15:00N 27°11' W 138°44'0 0.1 23.0
2014-Aug-11 14:00N 27°11' W 138°44'1 0.3 23.0
2014-Aug-11 12:00N 27°12' W 138°44'1 0.1 23.0
2014-Aug-11 03:00N 27°12' W 138°43'   23.1
Track history (hours):
 
Tides and Currents Weather Stations Pressure Air Temp Water Temp Dewpoint Dewpoint Depression Visibility Wind Speed Wind Dir Waves Ship Positions

Drifting buoy 46612

Last reported at 2014-Aug-21 03:00 UTC. Time now 2014-Aug-21 04:27 UTC.
Position N 26°40' W 138°57'.

Water temperature 23.9 ° C

Date/timePositionNaut miles runAvg speedWind from/ knotsBaromVisibWave heightAir tempDewpointWater temp
2014-Aug-21 03:00N 26°40' W 138°57'0 0.3 23.9
2014-Aug-21 02:00N 26°40' W 138°57'0 0.2 23.9
2014-Aug-21 01:00N 26°40' W 138°57'1 0.3 24.0
2014-Aug-20 23:00N 26°40' W 138°57'1 0.3 23.9
2014-Aug-20 21:00N 26°40' W 138°56'0 0.3 23.8
2014-Aug-20 20:00N 26°40' W 138°56'2 1.7 23.8
2014-Aug-20 19:00N 26°41' W 138°55'1 0.1 23.7
2014-Aug-20 14:00N 26°42' W 138°54'1 0.4 23.7
2014-Aug-20 12:00N 26°43' W 138°55'1 0.2 23.7
2014-Aug-20 07:00N 26°43' W 138°55'0 0.1 23.7
2014-Aug-20 03:00N 26°43' W 138°55'0 0.3 23.7
2014-Aug-20 02:00N 26°43' W 138°55'0 0.1 23.7
2014-Aug-20 01:00N 26°43' W 138°55'0 0.2 23.7
2014-Aug-19 23:00N 26°43' W 138°55'0 0.0 23.7
2014-Aug-19 21:00N 26°43' W 138°55'1 0.7 23.6
2014-Aug-19 20:00N 26°43' W 138°54'0 0.2 23.6
2014-Aug-19 18:00N 26°44' W 138°54'2 0.5 23.5
2014-Aug-19 15:00N 26°44' W 138°52'0 0.1 23.5
2014-Aug-19 12:00N 26°45' W 138°52'1 0.2 23.6
2014-Aug-19 07:00N 26°46' W 138°52'0 0.5 23.6
2014-Aug-19 06:00N 26°46' W 138°52'0 0.2 23.6
2014-Aug-19 04:00N 26°47' W 138°52'1 0.8 23.6
2014-Aug-19 03:00N 26°47' W 138°53'0 0.2 23.7
2014-Aug-19 00:00N 26°47' W 138°53'0 0.1 23.7
2014-Aug-18 23:00N 26°47' W 138°53'1 0.3 23.7
2014-Aug-18 21:00N 26°47' W 138°53'1 0.6 23.7
2014-Aug-18 19:00N 26°46' W 138°52'1 0.7 23.5
2014-Aug-18 18:00N 26°47' W 138°52'1 0.3 23.5
2014-Aug-18 15:00N 26°47' W 138°51'1 0.3 23.5
2014-Aug-18 13:00N 26°47' W 138°50'1 0.4 23.5
2014-Aug-18 11:00N 26°48' W 138°50'1 0.3 23.5
2014-Aug-18 07:00N 26°49' W 138°49'1 0.4 23.5
2014-Aug-18 04:00N 26°50' W 138°50'0 0.1 23.6
2014-Aug-18 03:00N 26°50' W 138°50'0 0.2 23.6
2014-Aug-18 02:00N 26°50' W 138°50'1 0.3 23.6
2014-Aug-18 00:00N 26°51' W 138°50'1 0.3 23.7
2014-Aug-17 22:00N 26°51' W 138°51'0 0.1 23.6
2014-Aug-17 21:00N 26°51' W 138°51'1 0.6 23.6
2014-Aug-17 20:00N 26°50' W 138°51'0 0.0 23.5
2014-Aug-17 19:00N 26°50' W 138°51'0 0.5 23.5
2014-Aug-17 18:00N 26°50' W 138°51'1 0.8 23.4
2014-Aug-17 17:00N 26°49' W 138°50'1 0.3 23.4
2014-Aug-17 14:00N 26°50' W 138°49'0 0.0 23.4
2014-Aug-17 13:00N 26°50' W 138°49'2 0.3 23.5
2014-Aug-17 07:00N 26°51' W 138°48'0 0.2 23.6
2014-Aug-17 06:00N 26°51' W 138°48'0 0.2 23.6
2014-Aug-17 05:00N 26°52' W 138°48'1 0.4 23.6
2014-Aug-17 02:00N 26°53' W 138°48'0 0.4 23.7
2014-Aug-17 01:00N 26°53' W 138°48'1 0.3 23.7
2014-Aug-16 22:00N 26°53' W 138°49'0 0.0 23.6
2014-Aug-16 18:00N 26°53' W 138°49'0 0.0 23.4
2014-Aug-16 17:00N 26°53' W 138°49'1 0.3 23.4
2014-Aug-16 15:00N 26°53' W 138°48'0 0.0 23.4
2014-Aug-16 14:00N 26°53' W 138°48'0 0.5 23.4
2014-Aug-16 13:00N 26°53' W 138°48'0 0.0 23.4
2014-Aug-16 12:00N 26°53' W 138°48'1 0.1 23.4
2014-Aug-16 07:00N 26°54' W 138°48'0 0.2 23.5
2014-Aug-16 06:00N 26°54' W 138°48'0 0.4 23.5
2014-Aug-16 05:00N 26°54' W 138°48'0 0.0 23.5
2014-Aug-16 04:00N 26°54' W 138°48'1 0.8 23.6
2014-Aug-16 03:00N 26°53' W 138°48'1 0.8 23.6
2014-Aug-16 02:00N 26°54' W 138°48'0 0.2 23.6
2014-Aug-16 01:00N 26°54' W 138°48'0 0.2 23.6
2014-Aug-16 00:00N 26°54' W 138°48'0 0.2 23.6
2014-Aug-15 23:00N 26°54' W 138°48'1 0.6 23.6
2014-Aug-15 22:00N 26°54' W 138°47'0 0.0 23.6
2014-Aug-15 20:00N 26°54' W 138°47'0 0.0 23.5
2014-Aug-15 18:00N 26°54' W 138°47'0 0.1 23.5
2014-Aug-15 15:00N 26°55' W 138°47'1 0.3 23.5
2014-Aug-15 13:00N 26°55' W 138°47'0 0.3 23.5
2014-Aug-15 12:00N 26°55' W 138°47'0 0.0 23.5
2014-Aug-15 11:00N 26°55' W 138°47'1 0.2 23.6
2014-Aug-15 06:00N 26°56' W 138°47'0 0.2 23.6
2014-Aug-15 04:00N 26°57' W 138°47'0 0.1 23.9
2014-Aug-15 03:00N 26°57' W 138°47'1 0.6 24.2
2014-Aug-15 02:00N 26°57' W 138°47'0 0.1 24.7
2014-Aug-15 01:00N 26°57' W 138°47'0 0.3 25.6
2014-Aug-15 00:00N 26°57' W 138°47'1 0.5 25.6
2014-Aug-14 23:00N 26°57' W 138°48'0 0.0 24.9
2014-Aug-14 22:00N 26°57' W 138°48'1 0.4 24.3
2014-Aug-14 20:00N 26°58' W 138°47'1 0.8 23.8
2014-Aug-14 19:00N 26°58' W 138°48'1 0.4 23.5
2014-Aug-14 17:00N 26°59' W 138°47'1 0.3 23.4
2014-Aug-14 15:00N 26°58' W 138°48'0 0.4 23.5
2014-Aug-14 14:00N 26°59' W 138°47'0 0.2 23.5
2014-Aug-14 13:00N 26°59' W 138°47'0 0.1 23.5
2014-Aug-14 12:00N 26°59' W 138°47'1 0.5 23.5
2014-Aug-14 11:00N 26°59' W 138°47'1 0.3 23.5
2014-Aug-14 09:00N 26°60' W 138°47'0 0.0 23.5
2014-Aug-14 07:00N 26°60' W 138°47'0 0.4 23.5
2014-Aug-14 06:00N 26°60' W 138°47'1 0.3 23.5
2014-Aug-14 03:00N 27°01' W 138°47'0 0.2 23.7
2014-Aug-14 01:00N 27°01' W 138°47'0 0.3 23.7
2014-Aug-14 00:00N 27°01' W 138°47'1 0.2 23.7
2014-Aug-13 21:00N 27°01' W 138°47'1 0.3 23.6
2014-Aug-13 19:00N 27°02' W 138°47'1 0.6 23.3
2014-Aug-13 18:00N 27°02' W 138°47'0 0.3 23.2
2014-Aug-13 17:00N 27°02' W 138°48'0 0.1 23.1
2014-Aug-13 16:00N 27°02' W 138°48'0 0.2 23.1
2014-Aug-13 15:00N 27°03' W 138°48'0 0.2 23.1
2014-Aug-13 13:00N 27°03' W 138°47'0 0.0 23.1
2014-Aug-13 12:00N 27°03' W 138°47'1 0.2 23.2
2014-Aug-13 09:00N 27°03' W 138°47'0 0.1 23.2
2014-Aug-13 06:00N 27°04' W 138°47'1 0.3 23.3
2014-Aug-13 04:00N 27°04' W 138°46'0 0.1 23.4
2014-Aug-13 03:00N 27°04' W 138°47'1 0.3 23.4
2014-Aug-13 01:00N 27°05' W 138°46'0 0.2 23.5
2014-Aug-13 00:00N 27°05' W 138°46'1 0.3 23.5
2014-Aug-12 22:00N 27°06' W 138°47'0 0.0 23.5
2014-Aug-12 21:00N 27°06' W 138°47'1 0.6 23.4
2014-Aug-12 20:00N 27°06' W 138°46'0 0.1 23.3
2014-Aug-12 18:00N 27°06' W 138°46'1 0.1 23.1
2014-Aug-12 14:00N 27°07' W 138°46'1 0.3 23.0
2014-Aug-12 12:00N 27°07' W 138°45'1 0.3 23.0
2014-Aug-12 07:00N 27°08' W 138°45'0 0.2 23.1
2014-Aug-12 06:00N 27°08' W 138°45'0 0.4 23.1
2014-Aug-12 05:00N 27°09' W 138°45'0 0.1 23.1
2014-Aug-12 03:00N 27°08' W 138°45'0 0.1 23.2
2014-Aug-12 02:00N 27°09' W 138°45'0 0.2 23.3
2014-Aug-12 01:00N 27°09' W 138°45'1 0.2 23.3
2014-Aug-11 21:00N 27°09' W 138°45'1 0.6 23.1
2014-Aug-11 19:00N 27°10' W 138°43'1 0.7 23.0
2014-Aug-11 18:00N 27°11' W 138°44'0 0.0 23.0
2014-Aug-11 16:00N 27°11' W 138°44'0 0.5 23.0
2014-Aug-11 15:00N 27°11' W 138°44'0 0.1 23.0
2014-Aug-11 14:00N 27°11' W 138°44'1 0.3 23.0
2014-Aug-11 12:00N 27°12' W 138°44'1 0.1 23.0
2014-Aug-11 03:00N 27°12' W 138°43'   23.1

Dump ship's entire track history